Guntersville Observed Data For Previous 48 Hours

Caption
Day and Hour Reservoir Elevation (behind dam)* Tailwater Elevation (below dam)* Average Hourly Discharge*
4/22/2018 1 AM CDT 594.52 558.67 46,301
4/22/2018 2 AM CDT 594.51 558.68 46,279
4/22/2018 3 AM CDT 594.52 558.66 46,272
4/22/2018 4 AM CDT 594.52 558.63 46,248
4/22/2018 5 AM CDT 594.48 558.62 46,258
4/22/2018 6 AM CDT 594.46 558.62 46,198
4/22/2018 7 AM CDT 594.39 558.60 46,240
4/22/2018 8 AM CDT 594.30 558.78 46,229
4/22/2018 9 AM CDT 594.28 558.62 46,191
4/22/2018 10 AM CDT 594.20 558.65 46,191
4/22/2018 11 AM CDT 594.21 558.65 46,159
4/22/2018 12 PM CDT 594.21 558.66 46,110
4/22/2018 1 PM CDT 594.21 558.65 46,163
4/22/2018 2 PM CDT 594.23 558.61 46,136
4/22/2018 3 PM CDT 594.24 558.59 46,184
4/22/2018 4 PM CDT 594.28 558.58 46,203
4/22/2018 5 PM CDT 594.31 558.55 46,180
4/22/2018 6 PM CDT 594.36 558.53 46,189
4/22/2018 7 PM CDT 594.38 558.53 46,129
4/22/2018 8 PM CDT 594.40 558.51 46,246
4/22/2018 9 PM CDT 594.42 558.50 46,213
4/22/2018 10 PM CDT 594.44 558.52 46,282
4/22/2018 11 PM CDT 594.45 558.58 46,239
4/23/2018 12 AM CDT 594.44 558.62 46,228
4/23/2018 1 AM CDT 594.41 558.67 46,201
4/23/2018 2 AM CDT 594.35 558.75 46,131
4/23/2018 3 AM CDT 594.35 558.84 46,167
4/23/2018 4 AM CDT 594.33 558.96 46,116
4/23/2018 5 AM CDT 594.33 559.11 46,110
4/23/2018 6 AM CDT 594.35 559.18 46,142
4/23/2018 7 AM CDT 594.43 557.76 42,861
4/23/2018 8 AM CDT 594.51 557.42 22,758
4/23/2018 9 AM CDT 594.61 557.19 22,814
4/23/2018 10 AM CDT 594.63 557.02 22,793
4/23/2018 11 AM CDT 594.65 556.92 22,792
4/23/2018 12 PM CDT 594.71 556.90 22,822
4/23/2018 1 PM CDT 594.75 556.93 23,114
4/23/2018 2 PM CDT 594.80 556.94 23,024
4/23/2018 3 PM CDT 594.85 556.98 23,035
4/23/2018 4 PM CDT 594.89 556.96 22,967
4/23/2018 5 PM CDT 594.80 558.00 26,180
4/23/2018 6 PM CDT 594.87 558.98 57,302
4/23/2018 7 PM CDT 594.89 559.32 65,023
4/23/2018 8 PM CDT 594.90 559.66 64,962
4/23/2018 9 PM CDT 594.92 559.82 64,967
4/23/2018 10 PM CDT 594.90 559.96 64,970
4/23/2018 11 PM CDT 594.92 560.09 64,936
4/24/2018 12 AM CDT 594.90 560.11 64,924
4/24/2018 1 AM CDT 594.91 560.14 64,946
4/24/2018 2 AM CDT 594.93 560.21 64,992
4/24/2018 3 AM CDT 594.93 560.24 65,018
4/24/2018 4 AM CDT 594.96 560.29 65,069
4/24/2018 5 AM CDT 594.98 560.30 65,084
4/24/2018 6 AM CDT 595.00 560.31 65,119
4/24/2018 7 AM CDT 595.02 560.33 65,106
4/24/2018 8 AM CDT 595.04 560.38 66,650
4/24/2018 9 AM CDT 595.07 560.83 69,161
4/24/2018 10 AM CDT 595.04 560.94 69,350
4/24/2018 11 AM CDT 594.87 561.53 82,823
4/24/2018 12 PM CDT 594.89 561.76 91,573
4/24/2018 1 PM CDT 594.91 561.51 87,391
4/24/2018 2 PM CDT 594.89 561.49 78,643
4/24/2018 3 PM CDT 594.92 561.57 78,704
4/24/2018 4 PM CDT 594.94 561.34 78,641
4/24/2018 5 PM CDT 594.93 561.26 72,901
4/24/2018 6 PM CDT 594.96 561.26 72,906
4/24/2018 7 PM CDT 594.98 561.18 72,961
4/24/2018 8 PM CDT 594.97 561.20 72,947
4/24/2018 9 PM CDT 594.97 561.22 72,948

Elevations are in feet above sea level. Discharges are in cubic feet per second and are reported at the end of the hour.